createdAt,value
2019-03-30T00:01:11.559Z,77.00
2019-03-30T00:03:44.348Z,77.40
2019-03-30T00:06:19.571Z,77.30
2019-03-30T00:08:50.018Z,77.50
2019-03-30T00:11:20.681Z,77.60
2019-03-30T00:13:53.113Z,76.90
2019-03-30T00:16:23.802Z,76.80
2019-03-30T00:18:54.554Z,76.60
2019-03-30T00:21:25.216Z,76.70
2019-03-30T00:23:56.059Z,77.30
2019-03-30T00:26:29.890Z,77.00
2019-03-30T00:29:00.536Z,77.10
2019-03-30T00:31:31.201Z,77.40
2019-03-30T00:34:03.054Z,78.20
2019-03-30T00:36:36.006Z,77.80
2019-03-30T00:39:09.526Z,77.80
2019-03-30T00:41:40.201Z,78.20
2019-03-30T00:44:13.819Z,78.90
2019-03-30T00:46:45.483Z,79.20
2019-03-30T00:49:16.486Z,79.10
2019-03-30T00:51:48.622Z,79.20
2019-03-30T00:54:19.421Z,79.60
2019-03-30T00:56:52.829Z,79.20
2019-03-30T00:59:23.481Z,80.20
2019-03-30T01:01:56.192Z,80.60
2019-03-30T01:04:30.987Z,81.00
2019-03-30T01:07:01.878Z,80.40
2019-03-30T01:09:32.625Z,79.20
2019-03-30T01:12:08.297Z,79.30
2019-03-30T01:14:39.253Z,80.10
2019-03-30T01:17:09.993Z,80.90
2019-03-30T01:19:40.735Z,80.90
2019-03-30T01:22:11.513Z,80.70
2019-03-30T01:24:42.210Z,80.40
2019-03-30T01:27:13.472Z,79.60
2019-03-30T01:29:44.199Z,78.70
2019-03-30T01:32:16.667Z,78.90
2019-03-30T01:34:49.127Z,79.50
2019-03-30T01:37:19.870Z,79.50
2019-03-30T01:39:54.102Z,79.10
2019-03-30T01:42:29.298Z,79.40
2019-03-30T01:44:57.074Z,78.80
2019-03-30T01:47:27.724Z,77.90
2019-03-30T01:49:58.483Z,78.30
2019-03-30T01:52:32.008Z,76.60
2019-03-30T01:55:02.720Z,77.20
2019-03-30T01:57:34.410Z,78.20
2019-03-30T02:00:08.931Z,78.60
2019-03-30T02:02:39.608Z,78.80
2019-03-30T02:05:12.221Z,79.60
2019-03-30T02:07:49.148Z,80.00
2019-03-30T02:10:25.811Z,79.10
2019-03-30T02:12:56.633Z,79.50
2019-03-30T02:15:29.683Z,81.60
2019-03-30T02:18:03.293Z,79.30
2019-03-30T02:20:42.434Z,79.30
2019-03-30T02:23:21.023Z,79.00
2019-03-30T02:25:50.581Z,77.80
2019-03-30T02:28:21.334Z,77.70
2019-03-30T02:30:55.497Z,78.30
2019-03-30T02:33:26.171Z,78.40
2019-03-30T02:35:56.920Z,78.80
2019-03-30T02:38:28.573Z,78.90
2019-03-30T02:41:01.908Z,79.50
2019-03-30T02:43:32.585Z,80.50
2019-03-30T02:46:03.321Z,79.40
2019-03-30T02:48:34.058Z,79.30
2019-03-30T02:51:06.427Z,78.80
2019-03-30T02:53:37.086Z,78.30
2019-03-30T02:56:07.925Z,78.50
2019-03-30T02:58:41.650Z,79.20
2019-03-30T03:01:12.323Z,79.00
2019-03-30T03:03:45.756Z,79.40
2019-03-30T03:06:35.255Z,80.30
2019-03-30T03:09:08.261Z,80.90
2019-03-30T03:11:39.053Z,80.20
2019-03-30T03:14:09.695Z,80.20
2019-03-30T03:16:40.415Z,80.20
2019-03-30T03:19:11.108Z,79.70
2019-03-30T03:21:41.881Z,78.90
2019-03-30T03:24:12.560Z,78.60
2019-03-30T03:26:43.269Z,78.90
2019-03-30T03:29:13.948Z,78.70
2019-03-30T03:31:44.678Z,78.90
2019-03-30T03:34:16.721Z,79.30
2019-03-30T03:36:49.070Z,79.50
2019-03-30T03:39:20.458Z,80.40
2019-03-30T03:41:51.228Z,80.30
2019-03-30T03:44:21.912Z,79.90
2019-03-30T03:46:52.587Z,80.60
2019-03-30T03:49:25.196Z,81.20
2019-03-30T03:51:58.749Z,81.80
2019-03-30T03:54:29.439Z,82.00
2019-03-30T03:57:00.492Z,81.80
2019-03-30T03:59:35.535Z,81.30
2019-03-30T04:02:07.906Z,80.90
2019-03-30T04:04:47.498Z,81.70
2019-03-30T04:07:24.787Z,82.80
2019-03-30T04:09:59.405Z,83.00
2019-03-30T04:12:32.054Z,81.30
2019-03-30T04:15:04.703Z,80.40
2019-03-30T04:17:35.570Z,80.30
2019-03-30T04:20:07.574Z,81.30
2019-03-30T04:22:38.202Z,81.30
2019-03-30T04:25:13.130Z,80.40
2019-03-30T04:27:46.687Z,80.40
2019-03-30T04:30:19.005Z,80.60
2019-03-30T04:32:51.541Z,80.40
2019-03-30T04:35:23.526Z,80.10
2019-03-30T04:37:55.418Z,80.10
2019-03-30T04:40:26.087Z,80.50
2019-03-30T04:42:58.532Z,80.90
2019-03-30T04:45:29.125Z,81.50
2019-03-30T04:48:01.663Z,81.60
2019-03-30T04:50:34.208Z,82.80
2019-03-30T04:53:05.652Z,82.80
2019-03-30T04:55:37.423Z,82.40
2019-03-30T04:58:09.452Z,82.00
2019-03-30T05:00:41.993Z,81.50
2019-03-30T05:03:15.467Z,81.80
2019-03-30T05:05:46.212Z,82.20
2019-03-30T05:08:21.023Z,82.10
2019-03-30T05:10:51.649Z,81.30
2019-03-30T05:13:25.960Z,80.40
2019-03-30T05:15:56.627Z,79.30
2019-03-30T05:18:27.397Z,77.60
2019-03-30T05:20:58.133Z,78.40
2019-03-30T05:23:31.477Z,77.20
2019-03-30T05:26:02.139Z,77.90
2019-03-30T05:28:33.891Z,77.00
2019-03-30T05:31:09.896Z,75.10
2019-03-30T05:33:39.329Z,70.40
2019-03-30T05:36:10.517Z,66.30
2019-03-30T05:38:42.845Z,60.90
2019-03-30T05:41:13.499Z,57.80
2019-03-30T05:43:44.240Z,54.00
2019-03-30T05:46:15.994Z,53.10
2019-03-30T05:48:48.309Z,51.80
2019-03-30T05:51:18.971Z,50.80
2019-03-30T05:53:52.682Z,49.80
2019-03-30T05:56:23.374Z,48.00
2019-03-30T05:58:54.162Z,45.80
2019-03-30T06:01:24.868Z,44.40
2019-03-30T06:03:56.635Z,43.20
2019-03-30T06:06:27.325Z,42.10
2019-03-30T06:08:58.004Z,42.40
2019-03-30T06:11:31.478Z,42.20
2019-03-30T06:14:03.304Z,41.20
2019-03-30T06:16:33.911Z,40.20
2019-03-30T06:19:08.104Z,38.90
2019-03-30T06:21:38.818Z,38.00
2019-03-30T06:24:09.502Z,37.00
2019-03-30T06:26:42.115Z,37.10
2019-03-30T06:29:12.484Z,36.10
2019-03-30T06:31:46.765Z,34.90
2019-03-30T06:34:15.491Z,33.90
2019-03-30T06:36:46.168Z,32.40
2019-03-30T06:39:20.479Z,33.20
2019-03-30T06:41:52.836Z,32.70
2019-03-30T06:44:25.914Z,30.70
2019-03-30T06:46:56.388Z,29.80
2019-03-30T06:49:32.753Z,29.70
2019-03-30T06:52:05.140Z,30.00
2019-03-30T06:54:36.816Z,29.70
2019-03-30T06:57:09.000Z,29.30
2019-03-30T06:59:39.694Z,28.20
2019-03-30T07:02:12.483Z,27.30
2019-03-30T07:04:43.111Z,25.10
2019-03-30T07:07:16.955Z,23.70
2019-03-30T07:09:50.594Z,22.60
2019-03-30T07:12:24.186Z,22.40
2019-03-30T07:15:03.322Z,21.00
2019-03-30T07:17:37.337Z,20.20
2019-03-30T07:20:14.945Z,20.80
2019-03-30T07:22:47.277Z,20.10
2019-03-30T07:25:21.679Z,19.40
2019-03-30T07:27:52.439Z,19.10
2019-03-30T07:30:23.137Z,19.70
2019-03-30T07:32:54.987Z,19.50
2019-03-30T07:35:27.015Z,19.50
2019-03-30T07:38:02.228Z,19.90
2019-03-30T07:40:34.034Z,20.50
2019-03-30T07:43:04.840Z,19.80
2019-03-30T07:45:35.639Z,19.30
2019-03-30T07:48:08.159Z,20.00
2019-03-30T07:50:38.965Z,20.10
2019-03-30T07:53:25.242Z,19.60
2019-03-30T07:55:47.845Z,20.00
2019-03-30T07:58:21.547Z,21.00
2019-03-30T08:00:52.895Z,21.40
2019-03-30T08:03:27.503Z,20.10
2019-03-30T08:06:00.026Z,21.80
2019-03-30T08:08:32.452Z,21.20
2019-03-30T08:11:03.195Z,20.30
2019-03-30T08:13:36.751Z,19.90
2019-03-30T08:16:07.387Z,20.00
2019-03-30T08:18:38.178Z,20.50
2019-03-30T08:21:09.905Z,19.50
2019-03-30T08:23:43.270Z,20.40
2019-03-30T08:26:15.787Z,19.60
2019-03-30T08:28:46.415Z,20.10
2019-03-30T08:31:18.125Z,20.20
2019-03-30T08:33:48.768Z,19.60
2019-03-30T08:36:21.308Z,18.60
2019-03-30T08:38:52.010Z,18.50
2019-03-30T08:41:24.442Z,18.00
2019-03-30T08:43:57.531Z,18.00
2019-03-30T08:46:29.092Z,18.60
2019-03-30T08:49:04.361Z,18.30
2019-03-30T08:51:41.371Z,19.00
2019-03-30T08:54:10.847Z,18.30
2019-03-30T08:56:41.631Z,18.80
2019-03-30T08:59:13.961Z,19.40
2019-03-30T09:01:44.618Z,18.80
2019-03-30T09:04:15.291Z,17.80
2019-03-30T09:06:47.709Z,16.30
2019-03-30T09:09:18.306Z,16.40
2019-03-30T09:11:49.916Z,17.70
2019-03-30T09:14:23.436Z,17.90
2019-03-30T09:16:57.207Z,17.40
2019-03-30T09:19:27.883Z,18.20
2019-03-30T09:22:00.462Z,17.70
2019-03-30T09:24:31.233Z,17.90
2019-03-30T09:27:03.070Z,17.30
2019-03-30T09:29:33.768Z,17.00
2019-03-30T09:32:14.356Z,16.30
2019-03-30T09:34:36.831Z,16.20
2019-03-30T09:37:07.532Z,17.50
2019-03-30T09:39:40.626Z,17.60
2019-03-30T09:42:18.336Z,17.60
2019-03-30T09:44:48.770Z,17.20
2019-03-30T09:47:20.608Z,17.00
2019-03-30T09:49:51.256Z,17.50
2019-03-30T09:52:21.913Z,17.00
2019-03-30T09:54:52.593Z,16.50
2019-03-30T09:57:24.562Z,16.80
2019-03-30T09:59:55.231Z,17.10
2019-03-30T10:02:25.907Z,17.50
2019-03-30T10:04:57.607Z,18.40
2019-03-30T10:07:28.253Z,18.30
2019-03-30T10:09:59.041Z,18.90
2019-03-30T10:12:29.780Z,18.70
2019-03-30T10:15:00.531Z,18.20
2019-03-30T10:17:35.127Z,18.00
2019-03-30T10:20:06.383Z,18.30
2019-03-30T10:22:37.739Z,18.50
2019-03-30T10:25:08.657Z,17.70
2019-03-30T10:27:39.320Z,18.00
2019-03-30T10:30:10.634Z,18.00
2019-03-30T10:32:41.302Z,18.00
2019-03-30T10:35:12.077Z,17.80
2019-03-30T10:37:42.815Z,17.00
2019-03-30T10:40:13.902Z,17.20
2019-03-30T10:42:44.581Z,17.20
2019-03-30T10:45:15.299Z,17.10
2019-03-30T10:47:45.991Z,17.50
2019-03-30T10:50:16.668Z,18.10
2019-03-30T10:52:47.498Z,18.90
2019-03-30T10:55:18.178Z,19.50
2019-03-30T10:57:49.021Z,18.50
2019-03-30T11:00:36.292Z,17.50
2019-03-30T11:03:06.958Z,17.30
2019-03-30T11:05:37.760Z,18.60
2019-03-30T11:08:08.552Z,20.40
2019-03-30T11:10:39.286Z,24.70
2019-03-30T11:13:10.074Z,27.70
2019-03-30T11:15:42.555Z,29.10
2019-03-30T11:18:13.227Z,30.30
2019-03-30T11:20:43.964Z,30.50
2019-03-30T11:23:15.834Z,31.90
2019-03-30T11:25:49.496Z,32.00
2019-03-30T11:28:25.668Z,31.80
2019-03-30T11:30:58.978Z,32.60
2019-03-30T11:33:31.502Z,32.80
2019-03-30T11:36:02.215Z,32.50
2019-03-30T11:38:32.912Z,34.00
2019-03-30T11:41:03.778Z,32.80
2019-03-30T11:43:36.534Z,33.00
2019-03-30T11:46:06.841Z,33.60
2019-03-30T11:48:38.614Z,33.90
2019-03-30T11:51:09.295Z,33.90
2019-03-30T11:53:40.054Z,33.70
2019-03-30T11:56:12.327Z,33.20
2019-03-30T11:58:44.936Z,33.90
2019-03-30T12:01:15.687Z,34.00
2019-03-30T12:03:49.949Z,35.20
2019-03-30T12:06:21.035Z,34.30
2019-03-30T12:08:51.750Z,33.90
2019-03-30T12:11:23.472Z,34.30
2019-03-30T12:13:54.146Z,35.40
2019-03-30T12:16:24.944Z,34.40
2019-03-30T12:18:59.611Z,33.80
2019-03-30T12:21:34.251Z,33.80
2019-03-30T12:24:11.713Z,34.10
2019-03-30T12:26:38.463Z,33.40
2019-03-30T12:29:10.288Z,34.80
2019-03-30T12:31:41.057Z,33.50
2019-03-30T12:34:13.249Z,32.60
2019-03-30T12:36:45.344Z,32.80
2019-03-30T12:39:17.130Z,30.30
2019-03-30T12:41:48.824Z,30.90
2019-03-30T12:44:22.991Z,34.20
2019-03-30T12:46:53.685Z,33.90
2019-03-30T12:49:24.351Z,32.20
2019-03-30T12:51:54.989Z,33.30
2019-03-30T12:54:28.804Z,33.20
2019-03-30T12:57:01.633Z,34.70
2019-03-30T12:59:32.319Z,33.20
2019-03-30T13:02:02.911Z,33.80
2019-03-30T13:04:37.101Z,34.30
2019-03-30T13:07:07.025Z,35.30
2019-03-30T13:09:40.764Z,35.70
2019-03-30T13:12:11.520Z,33.60
2019-03-30T13:14:42.154Z,33.50
2019-03-30T13:17:12.809Z,33.90
2019-03-30T13:19:43.451Z,33.40
2019-03-30T13:22:14.093Z,33.40
2019-03-30T13:24:44.654Z,33.40
2019-03-30T13:27:17.811Z,33.80
2019-03-30T13:29:48.510Z,34.70
2019-03-30T13:32:21.475Z,35.80
2019-03-30T13:34:52.125Z,35.10
2019-03-30T13:37:22.766Z,34.60
2019-03-30T13:39:58.125Z,33.50
2019-03-30T13:42:29.989Z,31.70
2019-03-30T13:45:03.898Z,33.80
2019-03-30T13:47:32.950Z,34.90
2019-03-30T13:50:05.375Z,34.20
2019-03-30T13:52:37.613Z,33.20
2019-03-30T13:55:09.864Z,33.50
2019-03-30T13:57:43.519Z,32.90
2019-03-30T14:00:14.569Z,33.50
2019-03-30T14:02:46.333Z,32.80
2019-03-30T14:05:17.998Z,32.80
2019-03-30T14:07:54.971Z,32.20
2019-03-30T14:10:26.635Z,32.80
2019-03-30T14:13:00.135Z,32.80
2019-03-30T14:15:30.867Z,33.20
2019-03-30T14:18:01.432Z,33.20
2019-03-30T14:20:33.311Z,34.00
2019-03-30T14:23:03.981Z,33.60
2019-03-30T14:25:36.246Z,33.30
2019-03-30T14:28:14.338Z,33.50
2019-03-30T14:30:45.034Z,34.20
2019-03-30T14:33:16.719Z,35.60
2019-03-30T14:35:49.774Z,36.20
2019-03-30T14:38:22.908Z,36.20
2019-03-30T14:40:54.424Z,35.90
2019-03-30T14:43:26.090Z,35.80
2019-03-30T14:45:57.790Z,36.00
2019-03-30T14:48:28.640Z,36.40
2019-03-30T14:51:01.546Z,36.30
2019-03-30T14:53:36.964Z,37.30
2019-03-30T14:56:09.970Z,38.40
2019-03-30T14:58:40.580Z,38.60
2019-03-30T15:01:11.285Z,38.40
2019-03-30T15:03:43.012Z,38.10
2019-03-30T15:06:13.718Z,38.80
2019-03-30T15:08:47.076Z,38.50
2019-03-30T15:11:19.853Z,37.40
2019-03-30T15:13:51.667Z,38.00
2019-03-30T15:16:26.091Z,38.00
2019-03-30T15:19:00.455Z,37.80
2019-03-30T15:21:31.133Z,37.00
2019-03-30T15:24:04.223Z,36.80
2019-03-30T15:26:33.963Z,37.70
2019-03-30T15:29:07.144Z,38.60
2019-03-30T15:31:38.595Z,38.50
2019-03-30T15:34:09.291Z,38.00
2019-03-30T15:36:41.040Z,38.10
2019-03-30T15:39:11.636Z,38.50
2019-03-30T15:41:44.022Z,38.60
2019-03-30T15:44:14.662Z,39.00
2019-03-30T15:46:46.364Z,37.50
2019-03-30T15:49:17.168Z,37.50
2019-03-30T15:51:47.847Z,37.60
2019-03-30T15:54:18.404Z,37.60
2019-03-30T15:56:50.130Z,37.60
2019-03-30T15:59:24.663Z,36.80
2019-03-30T16:01:56.857Z,36.50
2019-03-30T16:04:30.617Z,36.10
2019-03-30T16:07:01.269Z,36.60
2019-03-30T16:09:34.747Z,36.60
2019-03-30T16:12:08.206Z,36.90
2019-03-30T16:14:42.056Z,36.30
2019-03-30T16:17:14.800Z,37.00
2019-03-30T16:19:45.030Z,37.40
2019-03-30T16:22:16.275Z,36.80
2019-03-30T16:24:51.895Z,37.00
2019-03-30T16:27:29.083Z,36.80
2019-03-30T16:29:58.600Z,38.90
2019-03-30T16:32:30.525Z,38.50
2019-03-30T16:35:01.167Z,39.10
2019-03-30T16:37:31.785Z,39.60
2019-03-30T16:40:08.130Z,39.00
2019-03-30T16:42:41.797Z,39.30
2019-03-30T16:45:12.506Z,39.50
2019-03-30T16:47:43.187Z,39.70
2019-03-30T16:50:14.796Z,40.20
2019-03-30T16:52:46.395Z,41.20
2019-03-30T16:55:18.222Z,41.40
2019-03-30T16:57:48.899Z,41.90
2019-03-30T17:00:19.654Z,42.30
2019-03-30T17:02:51.677Z,42.80
2019-03-30T17:05:25.318Z,43.40
2019-03-30T17:07:56.110Z,43.30
2019-03-30T17:10:28.122Z,43.00
2019-03-30T17:12:59.809Z,44.00
2019-03-30T17:15:30.479Z,44.30
2019-03-30T17:18:02.114Z,44.60
2019-03-30T17:20:32.848Z,45.30
2019-03-30T17:23:03.597Z,45.90
2019-03-30T17:25:34.886Z,45.80
2019-03-30T17:28:08.625Z,47.70
2019-03-30T17:30:39.277Z,48.10
2019-03-30T17:33:13.019Z,49.00
2019-03-30T17:35:47.252Z,51.00
2019-03-30T17:38:19.086Z,52.90
2019-03-30T17:40:50.957Z,54.60
2019-03-30T17:43:21.547Z,55.30
2019-03-30T17:45:55.284Z,55.50
2019-03-30T17:48:27.113Z,55.40
2019-03-30T17:50:58.758Z,56.00
2019-03-30T17:53:30.477Z,56.90
2019-03-30T17:56:02.063Z,56.00
2019-03-30T17:58:32.939Z,56.40
2019-03-30T18:01:08.228Z,56.40
2019-03-30T18:03:38.883Z,55.90
2019-03-30T18:06:12.841Z,56.00
2019-03-30T18:08:43.528Z,56.30
2019-03-30T18:11:17.031Z,55.30
2019-03-30T18:13:52.006Z,55.10
2019-03-30T18:16:24.755Z,54.80
2019-03-30T18:18:59.649Z,56.00
2019-03-30T18:21:30.251Z,57.20
2019-03-30T18:24:00.797Z,57.50
2019-03-30T18:26:31.467Z,58.20
2019-03-30T18:29:02.110Z,58.80
2019-03-30T18:31:32.752Z,58.80
2019-03-30T18:34:03.373Z,59.20
2019-03-30T18:36:35.635Z,58.40
2019-03-30T18:39:09.949Z,58.70
2019-03-30T18:41:39.959Z,58.60
2019-03-30T18:44:10.654Z,58.90
2019-03-30T18:46:41.286Z,59.50
2019-03-30T18:49:12.009Z,58.50
2019-03-30T18:51:44.448Z,59.80
2019-03-30T18:54:15.187Z,60.00
2019-03-30T18:56:45.855Z,60.20
2019-03-30T18:59:18.299Z,60.80
2019-03-30T19:01:50.384Z,60.50
2019-03-30T19:04:21.404Z,60.60
2019-03-30T19:06:56.878Z,61.10
2019-03-30T19:09:27.298Z,61.80
2019-03-30T19:11:59.257Z,62.00
2019-03-30T19:14:32.651Z,62.30
2019-03-30T19:17:03.387Z,62.30
2019-03-30T19:19:34.068Z,62.40
2019-03-30T19:22:05.125Z,62.60
2019-03-30T19:24:37.582Z,62.30
2019-03-30T19:27:09.531Z,62.30
2019-03-30T19:29:41.346Z,63.00
2019-03-30T19:32:13.580Z,63.40
2019-03-30T19:34:44.325Z,62.60
2019-03-30T19:37:16.076Z,62.70
2019-03-30T19:39:48.453Z,62.70
2019-03-30T19:42:20.245Z,62.20
2019-03-30T19:44:51.242Z,61.70
2019-03-30T19:47:21.914Z,61.60
2019-03-30T19:49:52.644Z,61.80
2019-03-30T19:52:23.258Z,61.70
2019-03-30T19:54:53.965Z,62.00
2019-03-30T19:57:27.533Z,62.10
2019-03-30T19:59:56.925Z,62.90
2019-03-30T20:02:27.705Z,63.60
2019-03-30T20:04:58.371Z,64.00
2019-03-30T20:07:29.065Z,65.00
2019-03-30T20:09:59.744Z,65.00
2019-03-30T20:12:31.776Z,65.50
2019-03-30T20:15:02.497Z,65.60
2019-03-30T20:17:33.135Z,65.60
2019-03-30T20:20:03.946Z,66.10
2019-03-30T20:22:34.577Z,66.70
2019-03-30T20:25:05.868Z,65.60
2019-03-30T20:27:36.571Z,65.70
2019-03-30T20:30:08.837Z,65.80
2019-03-30T20:32:42.957Z,65.90
2019-03-30T20:35:12.756Z,66.00
2019-03-30T20:37:46.420Z,66.20
2019-03-30T20:40:17.116Z,66.50
2019-03-30T20:42:47.753Z,66.50
2019-03-30T20:45:18.377Z,66.80
2019-03-30T20:47:49.012Z,66.60
2019-03-30T20:50:19.669Z,67.00
2019-03-30T20:52:50.300Z,67.00
2019-03-30T20:55:21.079Z,67.80
2019-03-30T20:57:51.684Z,68.20
2019-03-30T21:00:22.338Z,68.50
2019-03-30T21:02:52.972Z,67.90
2019-03-30T21:05:23.530Z,67.10
2019-03-30T21:07:54.178Z,67.20
2019-03-30T21:10:24.776Z,67.50
2019-03-30T21:12:58.425Z,68.00
2019-03-30T21:15:31.036Z,68.20
2019-03-30T21:18:01.771Z,68.30
2019-03-30T21:20:32.512Z,68.40
2019-03-30T21:23:03.144Z,68.80
2019-03-30T21:25:33.796Z,69.00
2019-03-30T21:28:04.428Z,69.70
2019-03-30T21:30:35.082Z,69.80
2019-03-30T21:33:05.782Z,70.00
2019-03-30T21:35:36.663Z,70.40
2019-03-30T21:38:07.799Z,70.70
2019-03-30T21:40:38.736Z,70.60
2019-03-30T21:43:09.586Z,70.80
2019-03-30T21:45:40.442Z,70.30
2019-03-30T21:48:11.084Z,70.00
2019-03-30T21:50:41.747Z,70.00
2019-03-30T21:53:12.403Z,69.80
2019-03-30T21:55:43.053Z,70.30
2019-03-30T21:58:13.725Z,70.30
2019-03-30T22:00:44.388Z,70.60
2019-03-30T22:03:16.730Z,70.90
2019-03-30T22:05:47.453Z,71.10
2019-03-30T22:08:22.020Z,71.30
2019-03-30T22:10:52.732Z,71.80
2019-03-30T22:13:23.375Z,71.50
2019-03-30T22:15:54.043Z,71.50
2019-03-30T22:18:26.492Z,71.60
2019-03-30T22:20:57.225Z,71.70
2019-03-30T22:23:27.869Z,71.80
2019-03-30T22:25:58.533Z,72.60
2019-03-30T22:28:29.239Z,73.10
2019-03-30T22:30:59.877Z,72.80
2019-03-30T22:33:30.871Z,73.60
2019-03-30T22:36:04.781Z,74.20
2019-03-30T22:38:35.427Z,73.80
2019-03-30T22:41:08.484Z,74.00
2019-03-30T22:43:38.388Z,74.60
2019-03-30T22:46:12.309Z,75.70
2019-03-30T22:48:42.937Z,76.10
2019-03-30T22:51:13.610Z,76.60
2019-03-30T22:53:44.343Z,76.10
2019-03-30T22:56:18.170Z,76.00
2019-03-30T22:58:48.588Z,76.10
2019-03-30T23:01:20.228Z,75.70
2019-03-30T23:03:56.972Z,75.80
2019-03-30T23:06:28.800Z,75.70
2019-03-30T23:09:00.767Z,75.80
2019-03-30T23:11:33.021Z,75.50
2019-03-30T23:14:04.966Z,75.30
2019-03-30T23:16:35.673Z,75.70
2019-03-30T23:19:06.317Z,75.90
2019-03-30T23:21:38.000Z,75.80
2019-03-30T23:24:10.250Z,76.00
2019-03-30T23:26:40.951Z,76.40
2019-03-30T23:29:11.626Z,76.40
2019-03-30T23:31:43.864Z,76.20
2019-03-30T23:34:14.492Z,76.20
2019-03-30T23:36:47.046Z,76.30
2019-03-30T23:39:19.346Z,76.70
2019-03-30T23:41:52.971Z,76.50
2019-03-30T23:44:23.619Z,76.80
2019-03-30T23:46:55.361Z,76.50
2019-03-30T23:49:27.340Z,77.00
2019-03-30T23:51:58.040Z,76.50
2019-03-30T23:54:31.842Z,77.00
2019-03-30T23:57:04.284Z,77.30
2019-03-30T23:59:34.906Z,77.50
